createdAt,value
2019-02-14T00:00:07.954Z,0.00
2019-02-14T00:01:07.979Z,0.00
2019-02-14T00:02:07.936Z,0.00
2019-02-14T00:03:07.970Z,0.00
2019-02-14T00:04:07.937Z,0.00
2019-02-14T00:05:15.919Z,0.00
2019-02-14T00:06:08.894Z,0.00
2019-02-14T00:07:07.892Z,0.00
2019-02-14T00:08:07.911Z,0.00
2019-02-14T00:09:07.910Z,0.00
2019-02-14T00:10:07.855Z,0.00
2019-02-14T00:11:07.842Z,0.00
2019-02-14T00:12:07.836Z,0.00
2019-02-14T00:13:07.846Z,0.00
2019-02-14T00:14:07.860Z,0.00
2019-02-14T00:15:07.811Z,0.00
2019-02-14T00:16:07.836Z,0.00
2019-02-14T00:17:07.796Z,0.00
2019-02-14T00:18:07.800Z,0.00
2019-02-14T00:19:07.862Z,0.00
2019-02-14T00:20:07.747Z,0.00
2019-02-14T00:21:07.763Z,0.00
2019-02-14T00:22:07.766Z,0.00
2019-02-14T00:23:07.741Z,0.00
2019-02-14T00:24:07.704Z,0.00
2019-02-14T00:25:07.714Z,0.00
2019-02-14T00:26:07.722Z,0.00
2019-02-14T00:27:07.714Z,0.00
2019-02-14T00:28:07.690Z,0.00
2019-02-14T00:29:07.653Z,0.00
2019-02-14T00:30:07.646Z,0.00
2019-02-14T00:31:07.640Z,0.00
2019-02-14T00:32:07.639Z,0.00
2019-02-14T00:33:07.656Z,0.00
2019-02-14T00:34:07.607Z,0.00
2019-02-14T00:35:07.607Z,0.00
2019-02-14T00:36:07.591Z,0.00
2019-02-14T00:37:07.594Z,0.00
2019-02-14T00:38:07.581Z,0.00
2019-02-14T00:39:07.612Z,0.00
2019-02-14T00:40:07.546Z,0.00
2019-02-14T00:41:07.533Z,0.00
2019-02-14T00:42:07.539Z,0.00
2019-02-14T00:43:07.508Z,0.00
2019-02-14T00:44:07.506Z,0.00
2019-02-14T00:45:07.600Z,0.00
2019-02-14T00:46:07.476Z,0.00
2019-02-14T00:47:07.467Z,0.00
2019-02-14T00:48:07.471Z,0.00
2019-02-14T00:49:07.444Z,0.00
2019-02-14T00:50:07.468Z,0.00
2019-02-14T00:51:07.422Z,0.00
2019-02-14T00:52:07.414Z,0.00
2019-02-14T00:53:07.420Z,0.00
2019-02-14T00:54:07.391Z,0.00
2019-02-14T00:55:07.420Z,0.00
2019-02-14T00:56:07.375Z,0.00
2019-02-14T00:57:07.374Z,0.00
2019-02-14T00:58:07.350Z,0.00
2019-02-14T00:59:07.342Z,0.00
2019-02-14T01:00:07.385Z,0.00
2019-02-14T01:01:07.347Z,0.00
2019-02-14T01:02:07.311Z,0.00
2019-02-14T01:03:07.297Z,0.00
2019-02-14T01:04:07.287Z,0.00
2019-02-14T01:05:07.281Z,0.00
2019-02-14T01:06:07.295Z,0.00
2019-02-14T01:07:07.293Z,0.00
2019-02-14T01:08:07.253Z,0.00
2019-02-14T01:09:07.237Z,0.00
2019-02-14T01:10:07.277Z,0.00
2019-02-14T01:11:07.219Z,0.00
2019-02-14T01:12:07.214Z,0.00
2019-02-14T01:13:07.228Z,0.00
2019-02-14T01:14:07.199Z,0.00
2019-02-14T01:15:07.182Z,0.00
2019-02-14T01:16:07.261Z,0.00
2019-02-14T01:17:07.160Z,0.00
2019-02-14T01:18:07.141Z,0.00
2019-02-14T01:19:07.139Z,0.00
2019-02-14T01:20:07.204Z,0.00
2019-02-14T01:21:07.145Z,0.00
2019-02-14T01:22:07.101Z,0.00
2019-02-14T01:23:07.106Z,0.00
2019-02-14T01:24:07.082Z,0.00
2019-02-14T01:25:07.072Z,0.00
2019-02-14T01:26:07.090Z,0.00
2019-02-14T01:27:07.047Z,0.00
2019-02-14T01:28:07.063Z,0.00
2019-02-14T01:29:07.026Z,0.00
2019-02-14T01:30:07.014Z,0.00
2019-02-14T01:31:07.036Z,0.00
2019-02-14T01:32:06.994Z,0.00
2019-02-14T01:33:07.015Z,0.00
2019-02-14T01:34:06.976Z,0.00
2019-02-14T01:35:06.968Z,0.00
2019-02-14T01:36:06.960Z,0.00
2019-02-14T01:37:06.974Z,0.00
2019-02-14T01:38:06.934Z,0.00
2019-02-14T01:39:06.937Z,0.00
2019-02-14T01:40:06.918Z,0.00
2019-02-14T01:41:06.904Z,0.00
2019-02-14T01:42:06.944Z,0.00
2019-02-14T01:43:06.901Z,0.00
2019-02-14T01:44:06.884Z,0.00
2019-02-14T01:45:06.876Z,0.00
2019-02-14T01:46:06.898Z,0.00
2019-02-14T01:47:07.983Z,0.00
2019-02-14T01:48:06.857Z,0.00
2019-02-14T01:49:06.844Z,0.00
2019-02-14T01:50:06.805Z,0.00
2019-02-14T01:51:06.807Z,0.00
2019-02-14T01:52:06.799Z,0.00
2019-02-14T01:53:06.813Z,0.00
2019-02-14T01:54:06.766Z,0.00
2019-02-14T01:55:06.758Z,0.00
2019-02-14T01:56:06.773Z,0.00
2019-02-14T01:57:06.753Z,0.00
2019-02-14T01:58:06.766Z,0.00
2019-02-14T01:59:06.714Z,0.00
2019-02-14T02:00:06.708Z,0.00
2019-02-14T02:01:06.699Z,0.00
2019-02-14T02:02:06.710Z,0.00
2019-02-14T02:03:06.671Z,0.00
2019-02-14T02:04:06.709Z,0.00
2019-02-14T02:05:06.662Z,0.00
2019-02-14T02:06:06.639Z,0.00
2019-02-14T02:07:06.653Z,0.00
2019-02-14T02:08:06.627Z,0.00
2019-02-14T02:09:06.646Z,0.00
2019-02-14T02:10:06.603Z,0.00
2019-02-14T02:11:06.594Z,0.00
2019-02-14T02:12:06.581Z,0.00
2019-02-14T02:13:06.586Z,0.00
2019-02-14T02:14:06.573Z,0.00
2019-02-14T02:15:06.591Z,0.00
2019-02-14T02:16:06.536Z,0.00
2019-02-14T02:17:06.545Z,0.00
2019-02-14T02:18:06.542Z,0.00
2019-02-14T02:19:06.508Z,0.00
2019-02-14T02:20:06.527Z,0.00
2019-02-14T02:21:06.502Z,0.00
2019-02-14T02:22:06.510Z,0.00
2019-02-14T02:23:06.461Z,0.00
2019-02-14T02:24:06.475Z,0.00
2019-02-14T02:25:06.477Z,0.00
2019-02-14T02:26:06.451Z,0.00
2019-02-14T02:27:06.422Z,0.00
2019-02-14T02:28:06.409Z,0.00
2019-02-14T02:29:06.411Z,0.00
2019-02-14T02:30:06.412Z,0.00
2019-02-14T02:31:06.505Z,0.00
2019-02-14T02:32:06.371Z,0.00
2019-02-14T02:33:06.374Z,0.00
2019-02-14T02:34:06.387Z,0.00
2019-02-14T02:35:06.342Z,0.00
2019-02-14T02:36:06.392Z,0.00
2019-02-14T02:37:06.327Z,0.00
2019-02-14T02:38:06.305Z,0.00
2019-02-14T02:39:06.313Z,0.00
2019-02-14T02:40:06.294Z,0.00
2019-02-14T02:41:06.300Z,0.00
2019-02-14T02:42:06.268Z,0.00
2019-02-14T02:43:06.269Z,0.00
2019-02-14T02:44:06.274Z,0.00
2019-02-14T02:45:06.236Z,0.00
2019-02-14T02:46:06.284Z,0.00
2019-02-14T02:47:06.215Z,0.00
2019-02-14T02:48:06.205Z,0.00
2019-02-14T02:49:06.232Z,0.00
2019-02-14T02:50:06.198Z,0.00
2019-02-14T02:51:06.169Z,0.00
2019-02-14T02:52:06.193Z,0.00
2019-02-14T02:53:06.158Z,0.00
2019-02-14T02:54:06.176Z,0.00
2019-02-14T02:55:06.130Z,0.00
2019-02-14T02:56:06.131Z,0.00
2019-02-14T02:57:06.168Z,0.00
2019-02-14T02:58:06.126Z,0.00
2019-02-14T02:59:06.088Z,0.00
2019-02-14T03:00:06.094Z,0.00
2019-02-14T03:01:06.095Z,0.00
2019-02-14T03:02:06.088Z,0.00
2019-02-14T03:03:06.079Z,0.00
2019-02-14T03:04:06.035Z,0.00
2019-02-14T03:05:06.057Z,0.00
2019-02-14T03:06:10.555Z,0.00
2019-02-14T03:07:06.009Z,0.00
2019-02-14T03:08:06.043Z,0.00
2019-02-14T03:09:05.995Z,0.00
2019-02-14T03:10:05.968Z,0.00
2019-02-14T03:11:05.974Z,0.00
2019-02-14T03:12:05.956Z,0.00
2019-02-14T03:13:06.005Z,0.00
2019-02-14T03:14:05.944Z,0.00
2019-02-14T03:15:05.922Z,0.00
2019-02-14T03:16:05.921Z,0.00
2019-02-14T03:17:05.919Z,0.00
2019-02-14T03:18:05.935Z,0.00
2019-02-14T03:19:05.897Z,0.00
2019-02-14T03:20:05.881Z,0.00
2019-02-14T03:21:05.868Z,0.00
2019-02-14T03:22:05.859Z,0.00
2019-02-14T03:23:05.880Z,0.00
2019-02-14T03:24:05.836Z,0.00
2019-02-14T03:25:05.837Z,0.00
2019-02-14T03:26:05.842Z,0.00
2019-02-14T03:27:05.822Z,0.00
2019-02-14T03:28:05.812Z,0.00
2019-02-14T03:29:05.788Z,0.00
2019-02-14T03:30:05.762Z,0.00
2019-02-14T03:31:05.808Z,0.00
2019-02-14T03:32:05.769Z,0.00
2019-02-14T03:33:05.758Z,0.00
2019-02-14T03:34:05.728Z,0.00
2019-02-14T03:35:05.735Z,0.00
2019-02-14T03:36:05.713Z,0.00
2019-02-14T03:37:05.688Z,0.00
2019-02-14T03:38:05.701Z,0.00
2019-02-14T03:39:05.678Z,0.00
2019-02-14T03:40:05.689Z,0.00
2019-02-14T03:41:05.685Z,0.00
2019-02-14T03:42:05.648Z,0.00
2019-02-14T03:43:05.652Z,0.00
2019-02-14T03:44:05.624Z,0.00
2019-02-14T03:45:05.608Z,0.00
2019-02-14T03:46:05.605Z,0.00
2019-02-14T03:47:05.617Z,0.00
2019-02-14T03:48:05.643Z,0.00
2019-02-14T03:49:05.589Z,0.00
2019-02-14T03:50:05.584Z,0.00
2019-02-14T03:51:05.540Z,0.00
2019-02-14T03:52:05.537Z,0.00
2019-02-14T03:53:05.521Z,0.00
2019-02-14T03:54:05.539Z,0.00
2019-02-14T03:55:05.503Z,0.00
2019-02-14T03:56:05.493Z,0.00
2019-02-14T03:57:05.500Z,0.00
2019-02-14T03:58:05.486Z,0.00
2019-02-14T03:59:05.515Z,0.00
2019-02-14T04:00:05.461Z,0.00
2019-02-14T04:01:05.464Z,0.00
2019-02-14T04:02:05.428Z,0.00
2019-02-14T04:03:05.485Z,0.00
2019-02-14T04:04:05.435Z,0.00
2019-02-14T04:05:05.391Z,0.00
2019-02-14T04:06:05.406Z,0.00
2019-02-14T04:07:05.384Z,0.00
2019-02-14T04:08:05.394Z,0.00
2019-02-14T04:09:05.391Z,0.00
2019-02-14T04:10:05.379Z,0.00
2019-02-14T04:11:05.340Z,0.00
2019-02-14T04:12:05.336Z,0.00
2019-02-14T04:13:05.314Z,0.00
2019-02-14T04:14:05.321Z,0.00
2019-02-14T04:15:05.345Z,0.00
2019-02-14T04:16:05.935Z,0.00
2019-02-14T04:17:05.268Z,0.00
2019-02-14T04:18:05.267Z,0.00
2019-02-14T04:19:05.259Z,0.00
2019-02-14T04:20:05.243Z,0.00
2019-02-14T04:21:05.265Z,0.00
2019-02-14T04:22:05.263Z,0.00
2019-02-14T04:23:05.225Z,0.00
2019-02-14T04:24:05.216Z,0.00
2019-02-14T04:25:05.201Z,0.00
2019-02-14T04:26:05.204Z,0.00
2019-02-14T04:27:05.173Z,0.00
2019-02-14T04:28:05.152Z,0.00
2019-02-14T04:29:05.140Z,0.00
2019-02-14T04:30:05.135Z,0.00
2019-02-14T04:31:05.141Z,0.00
2019-02-14T04:32:05.177Z,0.00
2019-02-14T04:33:05.095Z,0.00
2019-02-14T04:34:05.097Z,0.00
2019-02-14T04:35:05.114Z,0.00
2019-02-14T04:36:05.086Z,0.00
2019-02-14T04:37:05.054Z,0.00
2019-02-14T04:38:05.045Z,0.00
2019-02-14T04:39:05.039Z,0.00
2019-02-14T04:40:05.031Z,0.00
2019-02-14T04:41:05.039Z,0.00
2019-02-14T04:42:05.001Z,0.00
2019-02-14T04:43:05.001Z,0.00
2019-02-14T04:44:05.007Z,0.00
2019-02-14T04:45:04.997Z,0.00
2019-02-14T04:46:04.989Z,0.00
2019-02-14T04:47:04.962Z,0.00
2019-02-14T04:48:04.968Z,0.00
2019-02-14T04:49:04.958Z,0.00
2019-02-14T04:50:04.936Z,0.00
2019-02-14T04:51:04.941Z,0.00
2019-02-14T04:52:04.899Z,0.00
2019-02-14T04:53:04.906Z,0.00
2019-02-14T04:54:04.889Z,0.00
2019-02-14T04:55:04.875Z,0.00
2019-02-14T04:56:04.883Z,0.00
2019-02-14T04:57:04.842Z,0.00
2019-02-14T04:58:04.859Z,0.00
2019-02-14T04:59:04.828Z,0.00
2019-02-14T05:00:04.820Z,0.00
2019-02-14T05:01:04.826Z,0.00
2019-02-14T05:02:04.791Z,0.00
2019-02-14T05:03:04.780Z,0.00
2019-02-14T05:04:04.825Z,0.00
2019-02-14T05:05:04.792Z,0.00
2019-02-14T05:06:04.792Z,0.00
2019-02-14T05:07:04.769Z,0.00
2019-02-14T05:08:04.735Z,0.00
2019-02-14T05:09:04.729Z,0.00
2019-02-14T05:10:04.721Z,0.00
2019-02-14T05:11:04.715Z,0.00
2019-02-14T05:12:04.738Z,0.00
2019-02-14T05:13:04.693Z,0.00
2019-02-14T05:14:04.710Z,0.00
2019-02-14T05:15:04.660Z,0.00
2019-02-14T05:16:04.664Z,0.00
2019-02-14T05:17:04.689Z,0.00
2019-02-14T05:18:04.654Z,0.00
2019-02-14T05:19:04.614Z,0.00
2019-02-14T05:20:04.613Z,0.00
2019-02-14T05:21:04.604Z,0.00
2019-02-14T05:22:04.598Z,0.00
2019-02-14T05:23:04.604Z,0.00
2019-02-14T05:24:04.569Z,0.00
2019-02-14T05:25:04.570Z,0.00
2019-02-14T05:26:04.537Z,0.00
2019-02-14T05:27:04.540Z,0.00
2019-02-14T05:28:04.546Z,0.00
2019-02-14T05:29:04.514Z,0.00
2019-02-14T05:30:04.498Z,0.00
2019-02-14T05:31:04.487Z,0.00
2019-02-14T05:32:04.490Z,0.00
2019-02-14T05:33:04.497Z,0.00
2019-02-14T05:34:04.464Z,0.00
2019-02-14T05:35:04.446Z,0.00
2019-02-14T05:36:04.442Z,0.00
2019-02-14T05:37:04.431Z,0.00
2019-02-14T05:38:04.475Z,0.00
2019-02-14T05:39:04.397Z,0.00
2019-02-14T05:40:04.393Z,0.00
2019-02-14T05:41:04.398Z,0.00
2019-02-14T05:42:04.386Z,0.00
2019-02-14T05:43:04.401Z,0.00
2019-02-14T05:44:04.347Z,0.00
2019-02-14T05:45:04.338Z,0.00
2019-02-14T05:46:04.346Z,0.00
2019-02-14T05:47:04.321Z,0.00
2019-02-14T05:48:04.389Z,0.00
2019-02-14T05:49:04.296Z,0.00
2019-02-14T05:50:04.282Z,0.00
2019-02-14T05:51:04.293Z,0.00
2019-02-14T05:52:04.269Z,0.00
2019-02-14T05:53:04.312Z,0.00
2019-02-14T05:54:04.250Z,0.00
2019-02-14T05:55:04.251Z,0.00
2019-02-14T05:56:04.223Z,0.00
2019-02-14T05:57:04.214Z,0.00
2019-02-14T05:58:04.235Z,0.00
2019-02-14T05:59:04.203Z,0.00
2019-02-14T06:00:04.185Z,0.00
2019-02-14T06:01:04.187Z,0.00
2019-02-14T06:02:04.155Z,0.00
2019-02-14T06:03:04.149Z,0.00
2019-02-14T06:04:04.171Z,0.00
2019-02-14T06:05:04.150Z,0.00
2019-02-14T06:06:04.166Z,0.00
2019-02-14T06:07:04.117Z,0.00
2019-02-14T06:08:04.093Z,0.00
2019-02-14T06:09:04.117Z,0.00
2019-02-14T06:10:04.078Z,0.00
2019-02-14T06:11:04.064Z,0.00
2019-02-14T06:12:04.065Z,0.00
2019-02-14T06:13:04.038Z,0.00
2019-02-14T06:14:04.050Z,0.00
2019-02-14T06:15:04.045Z,4.00
2019-02-14T06:16:04.010Z,4.00
2019-02-14T06:17:04.009Z,4.00
2019-02-14T06:18:03.998Z,4.00
2019-02-14T06:19:03.974Z,4.00
2019-02-14T06:20:03.999Z,8.00
2019-02-14T06:21:03.956Z,4.00
2019-02-14T06:22:03.941Z,4.00
2019-02-14T06:23:03.938Z,12.00
2019-02-14T06:24:03.949Z,12.00
2019-02-14T06:25:04.007Z,12.00
2019-02-14T06:26:03.908Z,16.00
2019-02-14T06:27:03.885Z,20.00
2019-02-14T06:28:03.879Z,24.00
2019-02-14T06:29:03.878Z,28.00
2019-02-14T06:30:03.864Z,32.00
2019-02-14T06:31:03.908Z,36.00
2019-02-14T06:32:03.835Z,44.00
2019-02-14T06:33:03.850Z,52.00
2019-02-14T06:34:03.832Z,60.00
2019-02-14T06:35:03.809Z,72.00
2019-02-14T06:36:03.813Z,80.00
2019-02-14T06:37:09.486Z,92.00
2019-02-14T06:38:04.772Z,104.00
2019-02-14T06:39:03.764Z,116.00
2019-02-14T06:40:03.763Z,132.00
2019-02-14T06:41:03.814Z,152.00
2019-02-14T06:42:03.727Z,164.00
2019-02-14T06:43:03.735Z,188.00
2019-02-14T06:44:03.708Z,208.00
2019-02-14T06:45:03.698Z,228.00
2019-02-14T06:46:03.712Z,248.00
2019-02-14T06:47:04.806Z,272.00
2019-02-14T06:48:03.669Z,296.00
2019-02-14T06:49:03.662Z,320.00
2019-02-14T06:50:03.667Z,344.00
2019-02-14T06:51:03.680Z,368.00
2019-02-14T06:52:03.628Z,396.00
2019-02-14T06:53:03.637Z,420.00
2019-02-14T06:54:03.620Z,452.00
2019-02-14T06:55:03.599Z,480.00
2019-02-14T06:56:03.708Z,508.00
2019-02-14T06:57:03.573Z,536.00
2019-02-14T06:58:03.563Z,568.00
2019-02-14T06:59:03.557Z,600.00
2019-02-14T07:00:03.567Z,632.00
2019-02-14T07:01:03.555Z,664.00
2019-02-14T07:02:03.524Z,696.00
2019-02-14T07:03:03.511Z,728.00
2019-02-14T07:04:03.498Z,760.00
2019-02-14T07:05:03.497Z,792.00
2019-02-14T07:06:03.504Z,828.00
2019-02-14T07:07:03.469Z,864.00
2019-02-14T07:08:03.460Z,896.00
2019-02-14T07:09:03.442Z,932.00
2019-02-14T07:10:03.455Z,972.00
2019-02-14T07:11:03.450Z,1016.00
2019-02-14T07:12:03.415Z,1056.00
2019-02-14T07:13:03.411Z,1096.00
2019-02-14T07:14:03.396Z,1124.00
2019-02-14T07:15:03.401Z,1148.00
2019-02-14T07:16:03.398Z,1180.00
2019-02-14T07:17:03.381Z,1204.00
2019-02-14T07:18:03.346Z,1228.00
2019-02-14T07:19:03.356Z,1248.00
2019-02-14T07:20:03.368Z,1268.00
2019-02-14T07:21:03.357Z,1284.00
2019-02-14T07:22:03.313Z,1304.00
2019-02-14T07:23:03.305Z,1320.00
2019-02-14T07:24:03.282Z,1300.00
2019-02-14T07:25:03.281Z,1364.00
2019-02-14T07:26:03.267Z,1392.00
2019-02-14T07:27:03.298Z,1424.00
2019-02-14T07:28:03.436Z,1460.00
2019-02-14T07:29:03.256Z,1492.00
2019-02-14T07:30:03.216Z,1520.00
2019-02-14T07:31:03.220Z,1552.00
2019-02-14T07:32:03.222Z,1588.00
2019-02-14T07:33:03.186Z,1624.00
2019-02-14T07:34:04.077Z,1652.00
2019-02-14T07:35:03.184Z,1688.00
2019-02-14T07:36:03.159Z,1724.00
2019-02-14T07:37:03.196Z,1768.00
2019-02-14T07:38:03.151Z,1816.00
2019-02-14T07:39:03.154Z,1872.00
2019-02-14T07:40:03.145Z,1908.00
2019-02-14T07:41:03.101Z,1948.00
2019-02-14T07:42:03.112Z,1972.00
2019-02-14T07:43:03.167Z,2008.00
2019-02-14T07:44:03.070Z,2052.00
2019-02-14T07:45:03.071Z,2076.00
2019-02-14T07:46:03.069Z,2096.00
2019-02-14T07:47:03.049Z,2124.00
2019-02-14T07:48:03.048Z,2144.00
2019-02-14T07:49:03.017Z,2152.00
2019-02-14T07:50:03.003Z,2160.00
2019-02-14T07:51:02.997Z,2100.00
2019-02-14T07:52:03.002Z,2220.00
2019-02-14T07:53:03.049Z,2244.00
2019-02-14T07:54:02.967Z,2256.00
2019-02-14T07:55:03.006Z,2260.00
2019-02-14T07:56:02.984Z,2212.00
2019-02-14T07:57:02.943Z,2324.00
2019-02-14T07:58:02.981Z,2336.00
2019-02-14T07:59:02.908Z,2364.00
2019-02-14T08:00:02.931Z,2368.00
2019-02-14T08:01:02.921Z,2392.00
2019-02-14T08:02:02.898Z,2412.00
2019-02-14T08:03:02.939Z,2440.00
2019-02-14T08:04:02.872Z,2444.00
2019-02-14T08:05:02.871Z,2476.00
2019-02-14T08:06:02.865Z,2492.00
2019-02-14T08:07:02.843Z,2496.00
2019-02-14T08:08:02.847Z,2528.00
2019-02-14T08:09:02.840Z,2512.00
2019-02-14T08:10:02.814Z,2456.00
2019-02-14T08:11:02.819Z,2460.00
2019-02-14T08:12:02.789Z,2444.00
2019-02-14T08:13:02.778Z,2424.00
2019-02-14T08:14:02.850Z,2408.00
2019-02-14T08:15:02.748Z,2456.00
2019-02-14T08:16:02.797Z,2588.00
2019-02-14T08:17:02.722Z,2724.00
2019-02-14T08:18:02.731Z,2828.00
2019-02-14T08:19:02.721Z,2852.00
2019-02-14T08:20:02.741Z,2844.00
2019-02-14T08:21:02.680Z,2828.00
2019-02-14T08:22:02.673Z,2788.00
2019-02-14T08:23:02.681Z,2828.00
2019-02-14T08:24:02.649Z,2940.00
2019-02-14T08:25:02.701Z,2944.00
2019-02-14T08:26:10.604Z,2936.00
2019-02-14T08:27:03.621Z,2888.00
2019-02-14T08:28:02.612Z,2884.00
2019-02-14T08:29:02.598Z,2888.00
2019-02-14T08:30:02.605Z,2832.00
2019-02-14T08:31:02.599Z,2820.00
2019-02-14T08:32:02.567Z,2792.00
2019-02-14T08:33:02.573Z,2728.00
2019-02-14T08:34:02.556Z,2668.00
2019-02-14T08:35:02.549Z,2664.00
2019-02-14T08:36:02.615Z,2716.00
2019-02-14T08:37:02.516Z,2744.00
2019-02-14T08:38:02.504Z,2760.00
2019-02-14T08:39:02.536Z,2732.00
2019-02-14T08:40:02.486Z,2696.00
2019-02-14T08:41:02.498Z,2672.00
2019-02-14T08:42:02.470Z,2624.00
2019-02-14T08:43:02.452Z,2560.00
2019-02-14T08:44:02.457Z,2484.00
2019-02-14T08:45:02.435Z,2448.00
2019-02-14T08:46:02.579Z,2456.00
2019-02-14T08:47:02.415Z,2360.00
2019-02-14T08:48:02.456Z,2332.00
2019-02-14T08:49:02.389Z,2304.00
2019-02-14T08:50:02.375Z,2312.00
2019-02-14T08:51:02.398Z,2364.00
2019-02-14T08:52:02.380Z,2376.00
2019-02-14T08:53:02.346Z,2396.00
2019-02-14T08:54:02.361Z,2428.00
2019-02-14T08:55:02.326Z,2452.00
2019-02-14T08:56:02.335Z,2516.00
2019-02-14T08:57:02.313Z,2644.00
2019-02-14T08:58:02.310Z,2808.00
2019-02-14T08:59:02.305Z,2832.00
2019-02-14T09:00:02.287Z,2768.00
2019-02-14T09:01:02.327Z,2768.00
2019-02-14T09:02:02.284Z,2864.00
2019-02-14T09:03:02.251Z,2932.00
2019-02-14T09:04:02.249Z,3112.00
2019-02-14T09:05:02.255Z,3148.00
2019-02-14T09:06:02.210Z,3152.00
2019-02-14T09:07:02.224Z,3160.00
2019-02-14T09:08:02.212Z,3160.00
2019-02-14T09:09:02.192Z,3152.00
2019-02-14T09:10:02.170Z,3116.00
2019-02-14T09:11:02.171Z,3072.00
2019-02-14T09:12:02.167Z,3056.00
2019-02-14T09:13:02.149Z,3044.00
2019-02-14T09:14:02.136Z,3044.00
2019-02-14T09:15:02.126Z,3044.00
2019-02-14T09:16:02.106Z,3048.00
2019-02-14T09:17:02.125Z,3056.00
2019-02-14T09:18:02.087Z,3060.00
2019-02-14T09:19:02.090Z,3084.00
2019-02-14T09:20:02.067Z,3108.00
2019-02-14T09:21:02.081Z,3116.00
2019-02-14T09:22:02.081Z,3144.00
2019-02-14T09:23:02.080Z,3148.00
2019-02-14T09:24:02.055Z,3152.00
2019-02-14T09:25:02.009Z,3176.00
2019-02-14T09:26:02.509Z,3188.00
2019-02-14T09:27:02.043Z,3216.00
2019-02-14T09:28:02.014Z,3232.00
2019-02-14T09:29:02.000Z,3252.00
2019-02-14T09:30:01.976Z,3280.00
2019-02-14T09:31:01.967Z,3300.00
2019-02-14T09:32:01.956Z,3324.00
2019-02-14T09:33:01.966Z,3356.00
2019-02-14T09:34:01.917Z,3388.00
2019-02-14T09:35:01.919Z,3424.00
2019-02-14T09:36:01.935Z,3452.00
2019-02-14T09:37:01.887Z,3488.00
2019-02-14T09:38:03.642Z,3524.00
2019-02-14T09:39:01.865Z,3552.00
2019-02-14T09:40:01.871Z,3604.00
2019-02-14T09:41:01.847Z,3644.00
2019-02-14T09:42:01.833Z,3692.00
2019-02-14T09:43:01.898Z,3748.00
2019-02-14T09:44:01.816Z,3764.00
2019-02-14T09:45:01.807Z,3788.00
2019-02-14T09:46:01.806Z,3812.00
2019-02-14T09:47:01.813Z,3860.00
2019-02-14T09:48:01.793Z,3920.00
2019-02-14T09:49:01.772Z,3988.00
2019-02-14T09:50:01.755Z,4036.00
2019-02-14T09:51:01.756Z,4072.00
2019-02-14T09:52:01.746Z,4160.00
2019-02-14T09:53:01.749Z,4280.00
2019-02-14T09:54:01.719Z,4352.00
2019-02-14T09:55:01.737Z,4416.00
2019-02-14T09:56:01.699Z,4504.00
2019-02-14T09:57:01.691Z,4524.00
2019-02-14T09:58:01.711Z,4708.00
2019-02-14T09:59:01.655Z,4784.00
2019-02-14T10:00:01.652Z,4864.00
2019-02-14T10:01:01.684Z,4924.00
2019-02-14T10:02:01.625Z,4996.00
2019-02-14T10:03:01.624Z,5056.00
2019-02-14T10:04:01.635Z,5084.00
2019-02-14T10:05:01.625Z,5120.00
2019-02-14T10:06:01.597Z,5112.00
2019-02-14T10:07:01.637Z,5100.00
2019-02-14T10:08:01.564Z,5068.00
2019-02-14T10:09:01.616Z,5004.00
2019-02-14T10:10:01.580Z,4944.00
2019-02-14T10:11:01.578Z,4844.00
2019-02-14T10:12:01.556Z,4716.00
2019-02-14T10:13:01.511Z,4580.00
2019-02-14T10:14:03.590Z,4448.00
2019-02-14T10:15:01.525Z,4336.00
2019-02-14T10:16:01.544Z,4248.00
2019-02-14T10:17:01.467Z,4172.00
2019-02-14T10:18:01.507Z,4100.00
2019-02-14T10:19:01.467Z,4024.00
2019-02-14T10:20:01.477Z,3980.00
2019-02-14T10:21:01.445Z,3864.00
2019-02-14T10:22:01.438Z,3628.00
2019-02-14T10:23:01.402Z,3576.00
2019-02-14T10:24:01.392Z,3644.00
2019-02-14T10:25:01.383Z,3796.00
2019-02-14T10:26:01.414Z,4056.00
2019-02-14T10:27:01.360Z,4168.00
2019-02-14T10:28:01.362Z,4224.00
2019-02-14T10:29:01.379Z,4212.00
2019-02-14T10:30:01.334Z,4268.00
2019-02-14T10:31:01.361Z,4332.00
2019-02-14T10:32:01.339Z,4404.00
2019-02-14T10:33:01.300Z,4504.00
2019-02-14T10:34:01.312Z,4628.00
2019-02-14T10:35:01.278Z,4784.00
2019-02-14T10:36:01.313Z,4976.00
2019-02-14T10:37:01.270Z,5196.00
2019-02-14T10:38:01.260Z,5404.00
2019-02-14T10:39:01.245Z,5612.00
2019-02-14T10:40:01.267Z,5724.00
2019-02-14T10:41:01.246Z,6084.00
2019-02-14T10:42:01.231Z,6504.00
2019-02-14T10:43:01.197Z,6996.00
2019-02-14T10:44:01.188Z,7472.00
2019-02-14T10:45:01.218Z,7928.00
2019-02-14T10:46:01.206Z,8468.00
2019-02-14T10:47:01.150Z,8732.00
2019-02-14T10:48:01.146Z,8908.00
2019-02-14T10:49:01.136Z,9024.00
2019-02-14T10:50:01.151Z,9060.00
2019-02-14T10:51:01.153Z,9028.00
2019-02-14T10:52:01.160Z,8928.00
2019-02-14T10:53:01.090Z,8924.00
2019-02-14T10:54:01.087Z,8844.00
2019-02-14T10:55:01.066Z,8744.00
2019-02-14T10:56:01.078Z,8584.00
2019-02-14T10:57:01.064Z,8320.00
2019-02-14T10:58:01.030Z,8020.00
2019-02-14T10:59:01.071Z,7788.00
2019-02-14T11:00:01.013Z,7744.00
2019-02-14T11:01:01.023Z,7700.00
2019-02-14T11:02:01.041Z,7668.00
2019-02-14T11:03:00.977Z,7652.00
2019-02-14T11:04:00.980Z,7600.00
2019-02-14T11:05:00.979Z,7660.00
2019-02-14T11:06:00.983Z,7616.00
2019-02-14T11:07:00.971Z,7548.00
2019-02-14T11:08:00.932Z,7420.00
2019-02-14T11:09:00.914Z,7384.00
2019-02-14T11:10:00.904Z,7396.00
2019-02-14T11:11:00.928Z,7352.00
2019-02-14T11:12:00.906Z,7272.00
2019-02-14T11:13:00.869Z,7184.00
2019-02-14T11:14:00.905Z,7220.00
2019-02-14T11:15:00.876Z,7308.00
2019-02-14T11:16:00.874Z,7348.00
2019-02-14T11:17:00.846Z,7376.00
2019-02-14T11:18:00.820Z,7308.00
2019-02-14T11:19:00.811Z,7260.00
2019-02-14T11:20:00.805Z,7084.00
2019-02-14T11:21:00.826Z,6948.00
2019-02-14T11:22:00.773Z,6800.00
2019-02-14T11:23:00.772Z,6676.00
2019-02-14T11:24:00.758Z,6544.00
2019-02-14T11:25:00.758Z,6344.00
2019-02-14T11:26:00.779Z,6068.00
2019-02-14T11:27:00.720Z,5828.00
2019-02-14T11:28:00.744Z,5616.00
2019-02-14T11:29:00.700Z,5336.00
2019-02-14T11:30:00.696Z,5044.00
2019-02-14T11:31:00.758Z,4868.00
2019-02-14T11:32:00.675Z,4796.00
2019-02-14T11:33:00.672Z,4656.00
2019-02-14T11:34:00.657Z,4584.00
2019-02-14T11:35:00.653Z,4512.00
2019-02-14T11:36:00.705Z,4532.00
2019-02-14T11:37:00.648Z,4448.00
2019-02-14T11:38:00.629Z,4312.00
2019-02-14T11:39:00.641Z,4248.00
2019-02-14T11:40:00.585Z,4164.00
2019-02-14T11:41:00.578Z,4192.00
2019-02-14T11:42:00.612Z,4180.00
2019-02-14T11:43:00.556Z,4180.00
2019-02-14T11:44:02.742Z,4180.00
2019-02-14T11:45:00.680Z,4180.00
2019-02-14T11:46:00.548Z,4128.00
2019-02-14T11:47:00.543Z,4164.00
2019-02-14T11:48:00.548Z,4260.00
2019-02-14T11:49:00.491Z,4272.00
2019-02-14T11:50:00.486Z,4264.00
2019-02-14T11:51:00.557Z,4264.00
2019-02-14T11:52:00.485Z,4236.00
2019-02-14T11:53:00.450Z,4236.00
2019-02-14T11:54:00.464Z,4244.00
2019-02-14T11:55:00.426Z,4264.00
2019-02-14T11:56:00.460Z,4156.00
2019-02-14T11:57:00.432Z,4172.00
2019-02-14T11:58:00.492Z,4212.00
2019-02-14T11:59:00.387Z,4380.00
2019-02-14T12:00:00.379Z,4556.00
2019-02-14T12:01:00.370Z,4712.00
2019-02-14T12:02:00.351Z,4784.00
2019-02-14T12:03:00.367Z,4868.00
2019-02-14T12:04:00.342Z,4980.00
2019-02-14T12:05:00.347Z,5080.00
2019-02-14T12:06:00.315Z,5228.00
2019-02-14T12:07:00.299Z,5388.00
2019-02-14T12:08:00.311Z,5584.00
2019-02-14T12:09:00.704Z,5752.00
2019-02-14T12:10:00.342Z,6052.00
2019-02-14T12:11:00.295Z,6420.00
2019-02-14T12:12:00.263Z,6504.00
2019-02-14T12:13:00.283Z,6488.00
2019-02-14T12:14:00.245Z,6400.00
2019-02-14T12:15:00.288Z,6304.00
2019-02-14T12:16:00.204Z,6284.00
2019-02-14T12:17:00.194Z,6348.00
2019-02-14T12:18:00.180Z,6432.00
2019-02-14T12:19:00.362Z,6508.00
2019-02-14T12:20:00.338Z,6540.00
2019-02-14T12:21:00.180Z,6504.00
2019-02-14T12:22:00.141Z,6524.00
2019-02-14T12:23:00.141Z,6512.00
2019-02-14T12:24:00.156Z,6600.00
2019-02-14T12:25:00.302Z,6720.00
2019-02-14T12:26:00.096Z,6888.00
2019-02-14T12:27:00.089Z,7084.00
2019-02-14T12:28:00.078Z,7220.00
2019-02-14T12:29:00.092Z,7544.00
2019-02-14T12:30:00.055Z,7852.00
2019-02-14T12:31:00.056Z,8008.00
2019-02-14T12:32:00.041Z,8112.00
2019-02-14T12:33:00.024Z,8512.00
2019-02-14T12:34:00.066Z,8780.00
2019-02-14T12:34:59.996Z,8744.00
2019-02-14T12:36:00.002Z,8680.00
2019-02-14T12:37:00.003Z,8540.00
2019-02-14T12:37:59.969Z,8376.00
2019-02-14T12:39:08.324Z,8188.00
2019-02-14T12:40:01.000Z,7856.00
2019-02-14T12:40:59.943Z,7372.00
2019-02-14T12:41:59.926Z,6940.00